sensor_id;sensor_type;location;lat;lon;timestamp;P1;durP1;ratioP1;P2;durP2;ratioP2
21769;SDS011;11046;49.558;8.674;2024-01-15T00:02:09;42.60;;;13.53;;
21769;SDS011;11046;49.558;8.674;2024-01-15T00:05:10;44.20;;;14.60;;
21769;SDS011;11046;49.558;8.674;2024-01-15T00:08:10;43.93;;;13.43;;
21769;SDS011;11046;49.558;8.674;2024-01-15T00:11:14;45.77;;;14.07;;
21769;SDS011;11046;49.558;8.674;2024-01-15T00:14:15;48.33;;;13.80;;
21769;SDS011;11046;49.558;8.674;2024-01-15T00:17:22;56.67;;;14.53;;
21769;SDS011;11046;49.558;8.674;2024-01-15T00:20:25;42.23;;;13.27;;
21769;SDS011;11046;49.558;8.674;2024-01-15T00:23:28;42.73;;;13.00;;
21769;SDS011;11046;49.558;8.674;2024-01-15T00:26:29;42.80;;;13.33;;
21769;SDS011;11046;49.558;8.674;2024-01-15T00:29:33;43.30;;;12.80;;
21769;SDS011;11046;49.558;8.674;2024-01-15T00:32:35;44.70;;;13.07;;
21769;SDS011;11046;49.558;8.674;2024-01-15T00:35:41;40.90;;;12.87;;
21769;SDS011;11046;49.558;8.674;2024-01-15T00:38:44;39.43;;;12.30;;
21769;SDS011;11046;49.558;8.674;2024-01-15T00:41:49;35.57;;;12.70;;
21769;SDS011;11046;49.558;8.674;2024-01-15T00:44:50;47.83;;;12.80;;
21769;SDS011;11046;49.558;8.674;2024-01-15T00:47:51;43.67;;;12.03;;
21769;SDS011;11046;49.558;8.674;2024-01-15T00:50:51;40.90;;;12.73;;
21769;SDS011;11046;49.558;8.674;2024-01-15T00:53:54;32.60;;;11.87;;
21769;SDS011;11046;49.558;8.674;2024-01-15T00:56:58;38.67;;;12.57;;
21769;SDS011;11046;49.558;8.674;2024-01-15T00:59:59;36.63;;;12.00;;
21769;SDS011;11046;49.558;8.674;2024-01-15T01:02:59;36.43;;;11.50;;
21769;SDS011;11046;49.558;8.674;2024-01-15T01:06:00;38.93;;;12.07;;
21769;SDS011;11046;49.558;8.674;2024-01-15T01:09:01;42.77;;;13.60;;
21769;SDS011;11046;49.558;8.674;2024-01-15T01:12:01;39.70;;;12.60;;
21769;SDS011;11046;49.558;8.674;2024-01-15T01:15:02;47.00;;;12.20;;
21769;SDS011;11046;49.558;8.674;2024-01-15T01:18:06;42.77;;;12.80;;
21769;SDS011;11046;49.558;8.674;2024-01-15T01:21:07;42.43;;;13.83;;
21769;SDS011;11046;49.558;8.674;2024-01-15T01:24:08;41.73;;;12.83;;
21769;SDS011;11046;49.558;8.674;2024-01-15T01:27:08;42.80;;;13.90;;
21769;SDS011;11046;49.558;8.674;2024-01-15T01:30:09;38.60;;;11.87;;
21769;SDS011;11046;49.558;8.674;2024-01-15T01:33:10;43.17;;;12.87;;
21769;SDS011;11046;49.558;8.674;2024-01-15T01:36:13;46.93;;;14.03;;
21769;SDS011;11046;49.558;8.674;2024-01-15T01:39:14;40.10;;;13.53;;
21769;SDS011;11046;49.558;8.674;2024-01-15T01:42:15;43.90;;;13.73;;
21769;SDS011;11046;49.558;8.674;2024-01-15T01:45:15;42.30;;;13.50;;
21769;SDS011;11046;49.558;8.674;2024-01-15T01:48:19;50.23;;;14.17;;
21769;SDS011;11046;49.558;8.674;2024-01-15T01:51:23;44.07;;;13.23;;
21769;SDS011;11046;49.558;8.674;2024-01-15T01:54:29;43.40;;;13.53;;
21769;SDS011;11046;49.558;8.674;2024-01-15T01:57:33;41.23;;;14.40;;
21769;SDS011;11046;49.558;8.674;2024-01-15T02:00:35;47.00;;;13.80;;
21769;SDS011;11046;49.558;8.674;2024-01-15T02:03:36;47.57;;;14.27;;
21769;SDS011;11046;49.558;8.674;2024-01-15T02:06:37;45.90;;;13.97;;
21769;SDS011;11046;49.558;8.674;2024-01-15T02:09:37;41.37;;;12.87;;
21769;SDS011;11046;49.558;8.674;2024-01-15T02:12:38;44.00;;;13.50;;
21769;SDS011;11046;49.558;8.674;2024-01-15T02:15:39;47.13;;;13.50;;
21769;SDS011;11046;49.558;8.674;2024-01-15T02:18:44;47.93;;;13.97;;
21769;SDS011;11046;49.558;8.674;2024-01-15T02:21:45;48.73;;;15.73;;
21769;SDS011;11046;49.558;8.674;2024-01-15T02:24:45;46.20;;;14.53;;
21769;SDS011;11046;49.558;8.674;2024-01-15T02:27:46;51.03;;;14.47;;
21769;SDS011;11046;49.558;8.674;2024-01-15T02:30:47;42.60;;;13.60;;
21769;SDS011;11046;49.558;8.674;2024-01-15T02:33:48;43.90;;;13.80;;
21769;SDS011;11046;49.558;8.674;2024-01-15T02:36:48;42.17;;;13.67;;
21769;SDS011;11046;49.558;8.674;2024-01-15T02:39:49;48.23;;;14.37;;
21769;SDS011;11046;49.558;8.674;2024-01-15T02:46:06;43.77;;;13.37;;
21769;SDS011;11046;49.558;8.674;2024-01-15T02:49:07;45.50;;;14.50;;
21769;SDS011;11046;49.558;8.674;2024-01-15T02:52:07;40.83;;;12.97;;
21769;SDS011;11046;49.558;8.674;2024-01-15T02:55:08;39.87;;;12.73;;
21769;SDS011;11046;49.558;8.674;2024-01-15T02:58:09;40.50;;;12.60;;
21769;SDS011;11046;49.558;8.674;2024-01-15T03:01:09;43.70;;;13.00;;
21769;SDS011;11046;49.558;8.674;2024-01-15T03:04:10;43.73;;;13.37;;
21769;SDS011;11046;49.558;8.674;2024-01-15T03:07:11;38.90;;;12.90;;
21769;SDS011;11046;49.558;8.674;2024-01-15T03:10:12;43.77;;;14.27;;
21769;SDS011;11046;49.558;8.674;2024-01-15T03:13:12;44.37;;;13.03;;
21769;SDS011;11046;49.558;8.674;2024-01-15T03:16:13;41.37;;;12.43;;
21769;SDS011;11046;49.558;8.674;2024-01-15T03:19:13;40.40;;;12.57;;
21769;SDS011;11046;49.558;8.674;2024-01-15T03:22:14;42.23;;;12.20;;
21769;SDS011;11046;49.558;8.674;2024-01-15T03:25:15;40.67;;;12.67;;
21769;SDS011;11046;49.558;8.674;2024-01-15T03:28:15;36.80;;;11.90;;
21769;SDS011;11046;49.558;8.674;2024-01-15T03:31:16;38.77;;;12.90;;
21769;SDS011;11046;49.558;8.674;2024-01-15T03:34:16;38.07;;;12.40;;
21769;SDS011;11046;49.558;8.674;2024-01-15T03:37:17;40.97;;;13.17;;
21769;SDS011;11046;49.558;8.674;2024-01-15T03:40:18;39.27;;;13.90;;
21769;SDS011;11046;49.558;8.674;2024-01-15T03:43:18;38.40;;;11.03;;
21769;SDS011;11046;49.558;8.674;2024-01-15T03:46:19;35.60;;;12.13;;
21769;SDS011;11046;49.558;8.674;2024-01-15T03:49:19;40.97;;;11.57;;
21769;SDS011;11046;49.558;8.674;2024-01-15T03:52:20;36.77;;;11.63;;
21769;SDS011;11046;49.558;8.674;2024-01-15T03:55:20;40.93;;;12.90;;
21769;SDS011;11046;49.558;8.674;2024-01-15T03:58:21;42.40;;;11.87;;
21769;SDS011;11046;49.558;8.674;2024-01-15T04:01:22;35.97;;;11.97;;
21769;SDS011;11046;49.558;8.674;2024-01-15T04:04:22;30.10;;;11.13;;
21769;SDS011;11046;49.558;8.674;2024-01-15T04:07:23;32.93;;;11.40;;
21769;SDS011;11046;49.558;8.674;2024-01-15T04:10:23;41.37;;;12.03;;
21769;SDS011;11046;49.558;8.674;2024-01-15T04:13:24;33.67;;;11.27;;
21769;SDS011;11046;49.558;8.674;2024-01-15T04:16:25;35.47;;;11.30;;
21769;SDS011;11046;49.558;8.674;2024-01-15T04:19:25;40.40;;;12.70;;
21769;SDS011;11046;49.558;8.674;2024-01-15T04:22:26;35.47;;;12.00;;
21769;SDS011;11046;49.558;8.674;2024-01-15T04:25:27;37.73;;;12.30;;
21769;SDS011;11046;49.558;8.674;2024-01-15T04:28:27;38.00;;;11.67;;
21769;SDS011;11046;49.558;8.674;2024-01-15T04:31:28;38.40;;;11.70;;
21769;SDS011;11046;49.558;8.674;2024-01-15T04:34:28;39.83;;;11.23;;
21769;SDS011;11046;49.558;8.674;2024-01-15T04:37:29;39.87;;;12.57;;
21769;SDS011;11046;49.558;8.674;2024-01-15T04:40:30;34.77;;;13.03;;
21769;SDS011;11046;49.558;8.674;2024-01-15T04:43:30;31.33;;;11.53;;
21769;SDS011;11046;49.558;8.674;2024-01-15T04:46:31;36.13;;;11.53;;
21769;SDS011;11046;49.558;8.674;2024-01-15T04:49:31;39.67;;;12.17;;
21769;SDS011;11046;49.558;8.674;2024-01-15T04:52:32;34.03;;;10.83;;
21769;SDS011;11046;49.558;8.674;2024-01-15T04:55:33;31.03;;;11.83;;
21769;SDS011;11046;49.558;8.674;2024-01-15T04:58:33;36.60;;;10.93;;
21769;SDS011;11046;49.558;8.674;2024-01-15T05:01:34;38.37;;;11.50;;
21769;SDS011;11046;49.558;8.674;2024-01-15T05:04:35;33.70;;;10.93;;
21769;SDS011;11046;49.558;8.674;2024-01-15T05:07:35;31.80;;;10.43;;
21769;SDS011;11046;49.558;8.674;2024-01-15T05:10:36;30.80;;;10.47;;
21769;SDS011;11046;49.558;8.674;2024-01-15T05:13:37;33.83;;;10.73;;
21769;SDS011;11046;49.558;8.674;2024-01-15T05:16:38;34.97;;;11.27;;
21769;SDS011;11046;49.558;8.674;2024-01-15T05:19:39;34.80;;;10.73;;
21769;SDS011;11046;49.558;8.674;2024-01-15T05:22:39;33.73;;;10.70;;
21769;SDS011;11046;49.558;8.674;2024-01-15T05:25:40;33.40;;;11.37;;
21769;SDS011;11046;49.558;8.674;2024-01-15T05:28:41;30.57;;;10.60;;
21769;SDS011;11046;49.558;8.674;2024-01-15T05:31:42;34.60;;;11.53;;
21769;SDS011;11046;49.558;8.674;2024-01-15T05:34:43;32.97;;;9.87;;
21769;SDS011;11046;49.558;8.674;2024-01-15T05:37:44;34.90;;;11.37;;
21769;SDS011;11046;49.558;8.674;2024-01-15T05:40:45;37.00;;;10.90;;
21769;SDS011;11046;49.558;8.674;2024-01-15T05:43:46;32.00;;;11.30;;
21769;SDS011;11046;49.558;8.674;2024-01-15T05:46:46;32.27;;;10.93;;
21769;SDS011;11046;49.558;8.674;2024-01-15T05:49:47;29.07;;;9.73;;
21769;SDS011;11046;49.558;8.674;2024-01-15T05:52:48;34.13;;;11.10;;
21769;SDS011;11046;49.558;8.674;2024-01-15T05:55:48;33.00;;;10.87;;
21769;SDS011;11046;49.558;8.674;2024-01-15T05:58:49;31.83;;;10.87;;
21769;SDS011;11046;49.558;8.674;2024-01-15T06:01:50;40.03;;;12.17;;
21769;SDS011;11046;49.558;8.674;2024-01-15T06:04:50;37.57;;;11.80;;
21769;SDS011;11046;49.558;8.674;2024-01-15T06:07:51;35.40;;;11.37;;
21769;SDS011;11046;49.558;8.674;2024-01-15T06:10:51;33.57;;;10.23;;
21769;SDS011;11046;49.558;8.674;2024-01-15T06:13:52;33.70;;;12.57;;
21769;SDS011;11046;49.558;8.674;2024-01-15T06:16:52;37.57;;;12.17;;
21769;SDS011;11046;49.558;8.674;2024-01-15T06:19:53;39.50;;;12.63;;
21769;SDS011;11046;49.558;8.674;2024-01-15T06:22:54;38.57;;;12.50;;
21769;SDS011;11046;49.558;8.674;2024-01-15T06:25:54;40.40;;;13.00;;
21769;SDS011;11046;49.558;8.674;2024-01-15T06:28:55;36.70;;;12.07;;
21769;SDS011;11046;49.558;8.674;2024-01-15T06:31:55;37.10;;;12.17;;
21769;SDS011;11046;49.558;8.674;2024-01-15T06:34:56;36.67;;;12.40;;
21769;SDS011;11046;49.558;8.674;2024-01-15T06:37:56;33.33;;;11.03;;
21769;SDS011;11046;49.558;8.674;2024-01-15T06:40:57;40.40;;;13.50;;
21769;SDS011;11046;49.558;8.674;2024-01-15T06:43:58;38.37;;;14.30;;
21769;SDS011;11046;49.558;8.674;2024-01-15T06:46:58;35.30;;;11.90;;
21769;SDS011;11046;49.558;8.674;2024-01-15T06:50:02;34.97;;;12.57;;
21769;SDS011;11046;49.558;8.674;2024-01-15T06:53:04;33.47;;;11.53;;
21769;SDS011;11046;49.558;8.674;2024-01-15T06:56:05;33.30;;;12.03;;
21769;SDS011;11046;49.558;8.674;2024-01-15T06:59:06;36.83;;;13.40;;
21769;SDS011;11046;49.558;8.674;2024-01-15T07:02:06;34.97;;;11.73;;
21769;SDS011;11046;49.558;8.674;2024-01-15T07:05:07;34.70;;;10.83;;
21769;SDS011;11046;49.558;8.674;2024-01-15T07:08:08;41.07;;;12.50;;
21769;SDS011;11046;49.558;8.674;2024-01-15T07:11:09;34.57;;;12.07;;
21769;SDS011;11046;49.558;8.674;2024-01-15T07:14:10;34.80;;;12.57;;
21769;SDS011;11046;49.558;8.674;2024-01-15T07:17:10;33.87;;;12.37;;
21769;SDS011;11046;49.558;8.674;2024-01-15T07:20:11;39.97;;;12.30;;
21769;SDS011;11046;49.558;8.674;2024-01-15T07:23:11;32.37;;;11.47;;
21769;SDS011;11046;49.558;8.674;2024-01-15T07:26:12;33.30;;;10.93;;
21769;SDS011;11046;49.558;8.674;2024-01-15T07:29:13;39.33;;;12.20;;
21769;SDS011;11046;49.558;8.674;2024-01-15T07:32:13;38.83;;;12.47;;
21769;SDS011;11046;49.558;8.674;2024-01-15T07:35:14;35.57;;;12.10;;
21769;SDS011;11046;49.558;8.674;2024-01-15T07:38:15;40.03;;;13.53;;
21769;SDS011;11046;49.558;8.674;2024-01-15T07:41:16;33.53;;;12.63;;
21769;SDS011;11046;49.558;8.674;2024-01-15T07:44:16;39.30;;;11.77;;
21769;SDS011;11046;49.558;8.674;2024-01-15T07:47:17;40.33;;;13.17;;
21769;SDS011;11046;49.558;8.674;2024-01-15T07:50:19;36.33;;;13.20;;
21769;SDS011;11046;49.558;8.674;2024-01-15T07:53:19;36.30;;;12.87;;
21769;SDS011;11046;49.558;8.674;2024-01-15T07:56:20;39.80;;;12.50;;
21769;SDS011;11046;49.558;8.674;2024-01-15T07:59:21;35.80;;;11.90;;
21769;SDS011;11046;49.558;8.674;2024-01-15T08:02:22;34.50;;;13.30;;
21769;SDS011;11046;49.558;8.674;2024-01-15T08:05:22;40.13;;;12.20;;
21769;SDS011;11046;49.558;8.674;2024-01-15T08:08:23;32.50;;;12.23;;
21769;SDS011;11046;49.558;8.674;2024-01-15T08:11:24;35.90;;;11.67;;
21769;SDS011;11046;49.558;8.674;2024-01-15T08:14:24;39.17;;;13.57;;
21769;SDS011;11046;49.558;8.674;2024-01-15T08:17:25;34.63;;;12.03;;
21769;SDS011;11046;49.558;8.674;2024-01-15T08:20:28;32.37;;;11.60;;
21769;SDS011;11046;49.558;8.674;2024-01-15T08:23:29;34.27;;;11.80;;
21769;SDS011;11046;49.558;8.674;2024-01-15T08:26:31;33.37;;;12.30;;
21769;SDS011;11046;49.558;8.674;2024-01-15T08:29:34;33.37;;;12.27;;
21769;SDS011;11046;49.558;8.674;2024-01-15T08:32:35;37.33;;;12.83;;
21769;SDS011;11046;49.558;8.674;2024-01-15T08:35:40;34.53;;;12.27;;
21769;SDS011;11046;49.558;8.674;2024-01-15T08:38:41;36.87;;;12.80;;
21769;SDS011;11046;49.558;8.674;2024-01-15T08:41:41;37.73;;;13.17;;
21769;SDS011;11046;49.558;8.674;2024-01-15T08:44:42;36.47;;;12.77;;
21769;SDS011;11046;49.558;8.674;2024-01-15T08:47:43;38.77;;;12.13;;
21769;SDS011;11046;49.558;8.674;2024-01-15T08:50:44;34.97;;;11.60;;
21769;SDS011;11046;49.558;8.674;2024-01-15T08:53:46;35.70;;;13.10;;
21769;SDS011;11046;49.558;8.674;2024-01-15T08:56:46;36.13;;;13.40;;
21769;SDS011;11046;49.558;8.674;2024-01-15T08:59:47;36.93;;;14.03;;
21769;SDS011;11046;49.558;8.674;2024-01-15T09:02:47;36.33;;;14.07;;
21769;SDS011;11046;49.558;8.674;2024-01-15T09:05:48;35.10;;;13.30;;
21769;SDS011;11046;49.558;8.674;2024-01-15T09:08:50;34.77;;;13.93;;
21769;SDS011;11046;49.558;8.674;2024-01-15T09:11:51;39.67;;;12.87;;
21769;SDS011;11046;49.558;8.674;2024-01-15T09:14:51;30.17;;;12.23;;
21769;SDS011;11046;49.558;8.674;2024-01-15T09:17:53;38.60;;;12.90;;
21769;SDS011;11046;49.558;8.674;2024-01-15T09:20:54;35.70;;;12.67;;
21769;SDS011;11046;49.558;8.674;2024-01-15T09:23:55;33.63;;;13.67;;
21769;SDS011;11046;49.558;8.674;2024-01-15T09:26:55;38.97;;;13.80;;
21769;SDS011;11046;49.558;8.674;2024-01-15T09:29:56;34.73;;;14.13;;
21769;SDS011;11046;49.558;8.674;2024-01-15T09:32:56;36.20;;;13.07;;
21769;SDS011;11046;49.558;8.674;2024-01-15T09:35:57;42.33;;;14.43;;
21769;SDS011;11046;49.558;8.674;2024-01-15T09:39:00;38.87;;;14.57;;
21769;SDS011;11046;49.558;8.674;2024-01-15T09:42:01;34.90;;;13.07;;
21769;SDS011;11046;49.558;8.674;2024-01-15T09:45:03;34.70;;;13.23;;
21769;SDS011;11046;49.558;8.674;2024-01-15T09:48:04;37.93;;;14.13;;
21769;SDS011;11046;49.558;8.674;2024-01-15T09:51:05;34.60;;;13.53;;
21769;SDS011;11046;49.558;8.674;2024-01-15T09:54:08;27.63;;;12.47;;
21769;SDS011;11046;49.558;8.674;2024-01-15T09:57:09;35.63;;;12.87;;
21769;SDS011;11046;49.558;8.674;2024-01-15T10:00:09;38.77;;;12.97;;
21769;SDS011;11046;49.558;8.674;2024-01-15T10:03:11;39.33;;;14.17;;
21769;SDS011;11046;49.558;8.674;2024-01-15T10:06:12;32.77;;;12.87;;
21769;SDS011;11046;49.558;8.674;2024-01-15T10:09:17;36.47;;;13.50;;
21769;SDS011;11046;49.558;8.674;2024-01-15T10:12:18;34.43;;;13.23;;
21769;SDS011;11046;49.558;8.674;2024-01-15T10:15:25;33.80;;;13.17;;
21769;SDS011;11046;49.558;8.674;2024-01-15T10:18:26;33.93;;;12.30;;
21769;SDS011;11046;49.558;8.674;2024-01-15T10:21:27;29.63;;;12.73;;
21769;SDS011;11046;49.558;8.674;2024-01-15T10:24:27;34.20;;;12.70;;
21769;SDS011;11046;49.558;8.674;2024-01-15T10:27:28;34.27;;;12.67;;
21769;SDS011;11046;49.558;8.674;2024-01-15T10:30:29;39.97;;;13.30;;
21769;SDS011;11046;49.558;8.674;2024-01-15T10:33:31;33.23;;;12.93;;
21769;SDS011;11046;49.558;8.674;2024-01-15T10:36:32;38.13;;;13.47;;
21769;SDS011;11046;49.558;8.674;2024-01-15T10:39:32;34.50;;;13.53;;
21769;SDS011;11046;49.558;8.674;2024-01-15T10:42:33;38.07;;;13.37;;
21769;SDS011;11046;49.558;8.674;2024-01-15T10:45:34;38.23;;;13.43;;
21769;SDS011;11046;49.558;8.674;2024-01-15T10:48:34;39.13;;;14.27;;
21769;SDS011;11046;49.558;8.674;2024-01-15T10:51:35;32.07;;;13.20;;
21769;SDS011;11046;49.558;8.674;2024-01-15T10:54:36;36.07;;;12.40;;
21769;SDS011;11046;49.558;8.674;2024-01-15T10:57:38;43.57;;;14.23;;
21769;SDS011;11046;49.558;8.674;2024-01-15T11:00:39;35.83;;;13.50;;
21769;SDS011;11046;49.558;8.674;2024-01-15T11:03:40;39.03;;;13.77;;
21769;SDS011;11046;49.558;8.674;2024-01-15T11:06:46;36.20;;;13.97;;
21769;SDS011;11046;49.558;8.674;2024-01-15T11:09:50;34.60;;;13.47;;
21769;SDS011;11046;49.558;8.674;2024-01-15T11:12:50;34.63;;;14.13;;
21769;SDS011;11046;49.558;8.674;2024-01-15T11:15:54;41.30;;;14.07;;
21769;SDS011;11046;49.558;8.674;2024-01-15T11:21:58;35.93;;;13.90;;
21769;SDS011;11046;49.558;8.674;2024-01-15T11:25:14;34.67;;;13.63;;
21769;SDS011;11046;49.558;8.674;2024-01-15T11:28:33;36.87;;;12.50;;
21769;SDS011;11046;49.558;8.674;2024-01-15T11:34:50;37.97;;;12.97;;
21769;SDS011;11046;49.558;8.674;2024-01-15T11:40:52;28.73;;;12.10;;
21769;SDS011;11046;49.558;8.674;2024-01-15T11:43:52;33.37;;;12.67;;
21769;SDS011;11046;49.558;8.674;2024-01-15T11:50:00;26.00;;;10.87;;
21769;SDS011;11046;49.558;8.674;2024-01-15T11:53:03;31.60;;;12.00;;
21769;SDS011;11046;49.558;8.674;2024-01-15T11:56:12;35.13;;;13.00;;
21769;SDS011;11046;49.558;8.674;2024-01-15T11:59:16;32.50;;;12.87;;
21769;SDS011;11046;49.558;8.674;2024-01-15T12:02:17;31.43;;;11.97;;
21769;SDS011;11046;49.558;8.674;2024-01-15T12:05:18;33.53;;;12.53;;
21769;SDS011;11046;49.558;8.674;2024-01-15T12:08:23;32.23;;;11.77;;
21769;SDS011;11046;49.558;8.674;2024-01-15T12:11:25;33.37;;;12.20;;
21769;SDS011;11046;49.558;8.674;2024-01-15T12:14:28;33.53;;;12.70;;
21769;SDS011;11046;49.558;8.674;2024-01-15T12:17:29;28.87;;;11.53;;
21769;SDS011;11046;49.558;8.674;2024-01-15T12:20:30;29.23;;;11.50;;
21769;SDS011;11046;49.558;8.674;2024-01-15T12:23:31;31.20;;;12.23;;
21769;SDS011;11046;49.558;8.674;2024-01-15T12:26:33;37.70;;;14.23;;
21769;SDS011;11046;49.558;8.674;2024-01-15T12:29:34;35.23;;;13.50;;
21769;SDS011;11046;49.558;8.674;2024-01-15T12:32:35;34.37;;;14.57;;
21769;SDS011;11046;49.558;8.674;2024-01-15T12:35:35;37.27;;;15.10;;
21769;SDS011;11046;49.558;8.674;2024-01-15T12:38:36;39.10;;;14.27;;
21769;SDS011;11046;49.558;8.674;2024-01-15T12:41:38;37.60;;;14.47;;
21769;SDS011;11046;49.558;8.674;2024-01-15T12:44:39;31.33;;;13.90;;
21769;SDS011;11046;49.558;8.674;2024-01-15T12:47:40;38.13;;;15.20;;
21769;SDS011;11046;49.558;8.674;2024-01-15T12:50:42;37.97;;;14.97;;
21769;SDS011;11046;49.558;8.674;2024-01-15T12:53:43;36.40;;;15.27;;
21769;SDS011;11046;49.558;8.674;2024-01-15T12:56:44;34.30;;;13.83;;
21769;SDS011;11046;49.558;8.674;2024-01-15T12:59:45;36.63;;;14.20;;
21769;SDS011;11046;49.558;8.674;2024-01-15T13:02:46;34.33;;;14.10;;
21769;SDS011;11046;49.558;8.674;2024-01-15T13:05:46;29.20;;;12.73;;
21769;SDS011;11046;49.558;8.674;2024-01-15T13:08:47;36.60;;;14.03;;
21769;SDS011;11046;49.558;8.674;2024-01-15T13:11:48;30.93;;;13.53;;
21769;SDS011;11046;49.558;8.674;2024-01-15T13:14:48;30.50;;;12.00;;
21769;SDS011;11046;49.558;8.674;2024-01-15T13:17:49;31.70;;;12.33;;
21769;SDS011;11046;49.558;8.674;2024-01-15T13:20:49;27.63;;;11.20;;
21769;SDS011;11046;49.558;8.674;2024-01-15T13:23:50;25.83;;;11.67;;
21769;SDS011;11046;49.558;8.674;2024-01-15T13:26:51;30.23;;;12.87;;
21769;SDS011;11046;49.558;8.674;2024-01-15T13:29:52;24.97;;;10.77;;
21769;SDS011;11046;49.558;8.674;2024-01-15T13:32:52;29.37;;;11.60;;
21769;SDS011;11046;49.558;8.674;2024-01-15T13:35:54;23.07;;;10.97;;
21769;SDS011;11046;49.558;8.674;2024-01-15T13:38:54;24.20;;;10.47;;
21769;SDS011;11046;49.558;8.674;2024-01-15T13:41:55;29.27;;;11.93;;
21769;SDS011;11046;49.558;8.674;2024-01-15T13:44:56;30.47;;;11.70;;
21769;SDS011;11046;49.558;8.674;2024-01-15T13:47:56;26.63;;;10.77;;
21769;SDS011;11046;49.558;8.674;2024-01-15T13:50:57;22.90;;;11.13;;
21769;SDS011;11046;49.558;8.674;2024-01-15T13:53:59;25.20;;;10.57;;
21769;SDS011;11046;49.558;8.674;2024-01-15T13:56:59;23.70;;;10.70;;
21769;SDS011;11046;49.558;8.674;2024-01-15T14:00:01;26.17;;;10.50;;
21769;SDS011;11046;49.558;8.674;2024-01-15T14:03:02;25.30;;;11.30;;
21769;SDS011;11046;49.558;8.674;2024-01-15T14:06:03;25.33;;;11.23;;
21769;SDS011;11046;49.558;8.674;2024-01-15T14:09:08;24.77;;;11.17;;
21769;SDS011;11046;49.558;8.674;2024-01-15T14:12:10;22.00;;;10.90;;
21769;SDS011;11046;49.558;8.674;2024-01-15T14:15:11;25.43;;;11.30;;
21769;SDS011;11046;49.558;8.674;2024-01-15T14:18:12;39.10;;;14.67;;
21769;SDS011;11046;49.558;8.674;2024-01-15T14:21:12;34.33;;;13.03;;
21769;SDS011;11046;49.558;8.674;2024-01-15T14:24:13;30.97;;;10.97;;
21769;SDS011;11046;49.558;8.674;2024-01-15T14:27:14;28.60;;;12.00;;
21769;SDS011;11046;49.558;8.674;2024-01-15T14:30:15;25.43;;;11.10;;
21769;SDS011;11046;49.558;8.674;2024-01-15T14:33:16;20.93;;;9.83;;
21769;SDS011;11046;49.558;8.674;2024-01-15T14:36:17;27.13;;;10.63;;
21769;SDS011;11046;49.558;8.674;2024-01-15T14:39:17;24.60;;;10.17;;
21769;SDS011;11046;49.558;8.674;2024-01-15T14:42:18;25.90;;;10.43;;
21769;SDS011;11046;49.558;8.674;2024-01-15T14:45:19;26.30;;;10.70;;
21769;SDS011;11046;49.558;8.674;2024-01-15T14:48:20;24.63;;;11.30;;
21769;SDS011;11046;49.558;8.674;2024-01-15T14:51:20;25.70;;;10.83;;
21769;SDS011;11046;49.558;8.674;2024-01-15T14:54:21;24.60;;;10.20;;
21769;SDS011;11046;49.558;8.674;2024-01-15T14:57:22;19.70;;;9.00;;
21769;SDS011;11046;49.558;8.674;2024-01-15T15:00:22;19.27;;;8.63;;
21769;SDS011;11046;49.558;8.674;2024-01-15T15:03:23;22.10;;;9.67;;
21769;SDS011;11046;49.558;8.674;2024-01-15T15:06:24;25.30;;;11.83;;
21769;SDS011;11046;49.558;8.674;2024-01-15T15:09:27;22.57;;;9.70;;
21769;SDS011;11046;49.558;8.674;2024-01-15T15:12:28;24.20;;;9.43;;
21769;SDS011;11046;49.558;8.674;2024-01-15T15:15:29;24.10;;;10.20;;
21769;SDS011;11046;49.558;8.674;2024-01-15T15:18:29;21.07;;;10.03;;
21769;SDS011;11046;49.558;8.674;2024-01-15T15:21:30;21.87;;;9.37;;
21769;SDS011;11046;49.558;8.674;2024-01-15T15:24:30;21.03;;;9.43;;
21769;SDS011;11046;49.558;8.674;2024-01-15T15:27:31;22.60;;;9.67;;
21769;SDS011;11046;49.558;8.674;2024-01-15T15:30:32;23.33;;;9.97;;
21769;SDS011;11046;49.558;8.674;2024-01-15T15:33:32;24.33;;;9.37;;
21769;SDS011;11046;49.558;8.674;2024-01-15T15:36:33;19.23;;;8.60;;
21769;SDS011;11046;49.558;8.674;2024-01-15T15:39:33;19.53;;;9.50;;
21769;SDS011;11046;49.558;8.674;2024-01-15T15:42:34;25.30;;;10.30;;
21769;SDS011;11046;49.558;8.674;2024-01-15T15:45:35;25.27;;;11.43;;
21769;SDS011;11046;49.558;8.674;2024-01-15T15:48:35;24.20;;;10.47;;
21769;SDS011;11046;49.558;8.674;2024-01-15T15:51:36;24.17;;;10.30;;
21769;SDS011;11046;49.558;8.674;2024-01-15T15:54:37;24.97;;;11.53;;
21769;SDS011;11046;49.558;8.674;2024-01-15T15:57:39;20.87;;;8.50;;
21769;SDS011;11046;49.558;8.674;2024-01-15T16:00:40;19.17;;;8.83;;
21769;SDS011;11046;49.558;8.674;2024-01-15T16:03:40;22.33;;;9.13;;
21769;SDS011;11046;49.558;8.674;2024-01-15T16:06:41;18.90;;;8.73;;
21769;SDS011;11046;49.558;8.674;2024-01-15T16:09:42;29.53;;;10.60;;
21769;SDS011;11046;49.558;8.674;2024-01-15T16:12:43;15.70;;;7.47;;
21769;SDS011;11046;49.558;8.674;2024-01-15T16:15:45;15.03;;;7.87;;
21769;SDS011;11046;49.558;8.674;2024-01-15T16:18:45;20.50;;;9.17;;
21769;SDS011;11046;49.558;8.674;2024-01-15T16:21:46;18.47;;;7.57;;
21769;SDS011;11046;49.558;8.674;2024-01-15T16:24:46;20.97;;;10.17;;
21769;SDS011;11046;49.558;8.674;2024-01-15T16:27:47;47.13;;;20.87;;
21769;SDS011;11046;49.558;8.674;2024-01-15T16:30:48;24.10;;;10.37;;
21769;SDS011;11046;49.558;8.674;2024-01-15T16:33:49;22.13;;;10.30;;
21769;SDS011;11046;49.558;8.674;2024-01-15T16:36:49;18.37;;;7.70;;
21769;SDS011;11046;49.558;8.674;2024-01-15T16:39:50;17.97;;;8.37;;
21769;SDS011;11046;49.558;8.674;2024-01-15T16:42:50;23.07;;;8.37;;
21769;SDS011;11046;49.558;8.674;2024-01-15T16:45:51;20.30;;;8.23;;
21769;SDS011;11046;49.558;8.674;2024-01-15T16:48:52;21.63;;;9.10;;
21769;SDS011;11046;49.558;8.674;2024-01-15T16:51:53;22.97;;;8.93;;
21769;SDS011;11046;49.558;8.674;2024-01-15T16:54:54;19.83;;;7.50;;
21769;SDS011;11046;49.558;8.674;2024-01-15T16:57:54;22.17;;;9.60;;
21769;SDS011;11046;49.558;8.674;2024-01-15T17:00:55;20.43;;;9.40;;
21769;SDS011;11046;49.558;8.674;2024-01-15T17:03:55;18.47;;;7.17;;
21769;SDS011;11046;49.558;8.674;2024-01-15T17:06:56;19.63;;;7.53;;
21769;SDS011;11046;49.558;8.674;2024-01-15T17:09:57;19.33;;;8.33;;
21769;SDS011;11046;49.558;8.674;2024-01-15T17:12:58;25.43;;;11.20;;
21769;SDS011;11046;49.558;8.674;2024-01-15T17:16:03;21.30;;;9.57;;
21769;SDS011;11046;49.558;8.674;2024-01-15T17:19:04;15.80;;;6.77;;
21769;SDS011;11046;49.558;8.674;2024-01-15T17:22:07;18.67;;;7.33;;
21769;SDS011;11046;49.558;8.674;2024-01-15T17:25:08;16.47;;;7.07;;
21769;SDS011;11046;49.558;8.674;2024-01-15T17:28:08;21.60;;;8.50;;
21769;SDS011;11046;49.558;8.674;2024-01-15T17:31:09;21.73;;;9.03;;
21769;SDS011;11046;49.558;8.674;2024-01-15T17:34:10;17.83;;;7.50;;
21769;SDS011;11046;49.558;8.674;2024-01-15T17:37:10;16.57;;;7.80;;
21769;SDS011;11046;49.558;8.674;2024-01-15T17:40:11;19.67;;;7.50;;
21769;SDS011;11046;49.558;8.674;2024-01-15T17:43:12;17.70;;;7.53;;
21769;SDS011;11046;49.558;8.674;2024-01-15T17:46:12;14.90;;;7.70;;
21769;SDS011;11046;49.558;8.674;2024-01-15T17:49:14;22.30;;;8.93;;
21769;SDS011;11046;49.558;8.674;2024-01-15T17:52:15;19.33;;;8.57;;
21769;SDS011;11046;49.558;8.674;2024-01-15T17:55:15;17.47;;;7.57;;
21769;SDS011;11046;49.558;8.674;2024-01-15T17:58:17;15.70;;;7.90;;